sensor_id;sensor_type;location;lat;lon;timestamp;P1;durP1;ratioP1;P2;durP2;ratioP2
71965;SDS011;59836;52.132;5.442;2023-06-05T00:01:52;5.57;;;3.28;;
71965;SDS011;59836;52.132;5.442;2023-06-05T00:04:19;4.97;;;2.93;;
71965;SDS011;59836;52.132;5.442;2023-06-05T00:06:47;6.63;;;2.83;;
71965;SDS011;59836;52.132;5.442;2023-06-05T00:09:13;4.65;;;3.13;;
71965;SDS011;59836;52.132;5.442;2023-06-05T00:11:40;4.95;;;2.92;;
71965;SDS011;59836;52.132;5.442;2023-06-05T00:14:06;6.50;;;2.95;;
71965;SDS011;59836;52.132;5.442;2023-06-05T00:16:35;5.53;;;3.10;;
71965;SDS011;59836;52.132;5.442;2023-06-05T00:19:02;5.18;;;3.22;;
71965;SDS011;59836;52.132;5.442;2023-06-05T00:21:29;5.57;;;2.92;;
71965;SDS011;59836;52.132;5.442;2023-06-05T00:23:56;4.15;;;3.08;;
71965;SDS011;59836;52.132;5.442;2023-06-05T00:26:22;6.30;;;3.42;;
71965;SDS011;59836;52.132;5.442;2023-06-05T00:28:49;5.30;;;3.23;;
71965;SDS011;59836;52.132;5.442;2023-06-05T00:31:15;6.22;;;2.80;;
71965;SDS011;59836;52.132;5.442;2023-06-05T00:33:45;6.05;;;3.20;;
71965;SDS011;59836;52.132;5.442;2023-06-05T00:36:11;6.40;;;3.58;;
71965;SDS011;59836;52.132;5.442;2023-06-05T00:38:38;5.75;;;3.45;;
71965;SDS011;59836;52.132;5.442;2023-06-05T00:41:04;5.13;;;3.23;;
71965;SDS011;59836;52.132;5.442;2023-06-05T00:43:31;6.70;;;3.50;;
71965;SDS011;59836;52.132;5.442;2023-06-05T00:45:59;5.47;;;3.22;;
71965;SDS011;59836;52.132;5.442;2023-06-05T00:48:29;5.10;;;3.63;;
71965;SDS011;59836;52.132;5.442;2023-06-05T00:50:58;6.57;;;3.25;;
71965;SDS011;59836;52.132;5.442;2023-06-05T00:53:26;6.20;;;3.00;;
71965;SDS011;59836;52.132;5.442;2023-06-05T00:55:54;5.47;;;3.42;;
71965;SDS011;59836;52.132;5.442;2023-06-05T00:58:20;5.60;;;2.90;;
71965;SDS011;59836;52.132;5.442;2023-06-05T01:00:47;4.75;;;3.40;;
71965;SDS011;59836;52.132;5.442;2023-06-05T01:03:15;5.88;;;3.30;;
71965;SDS011;59836;52.132;5.442;2023-06-05T01:05:43;4.67;;;3.23;;
71965;SDS011;59836;52.132;5.442;2023-06-05T01:08:10;5.03;;;3.10;;
71965;SDS011;59836;52.132;5.442;2023-06-05T01:10:38;4.35;;;2.90;;
71965;SDS011;59836;52.132;5.442;2023-06-05T01:13:06;6.93;;;3.40;;
71965;SDS011;59836;52.132;5.442;2023-06-05T01:15:41;6.22;;;3.53;;
71965;SDS011;59836;52.132;5.442;2023-06-05T01:18:07;4.73;;;3.60;;
71965;SDS011;59836;52.132;5.442;2023-06-05T01:20:36;5.50;;;3.10;;
71965;SDS011;59836;52.132;5.442;2023-06-05T01:23:08;6.05;;;3.35;;
71965;SDS011;59836;52.132;5.442;2023-06-05T01:25:35;5.13;;;3.65;;
71965;SDS011;59836;52.132;5.442;2023-06-05T01:28:08;5.40;;;3.25;;
71965;SDS011;59836;52.132;5.442;2023-06-05T01:34:11;5.82;;;3.58;;
71965;SDS011;59836;52.132;5.442;2023-06-05T01:36:23;5.57;;;3.70;;
71965;SDS011;59836;52.132;5.442;2023-06-05T01:38:51;7.95;;;3.80;;
71965;SDS011;59836;52.132;5.442;2023-06-05T01:41:19;5.57;;;3.45;;
71965;SDS011;59836;52.132;5.442;2023-06-05T01:43:46;5.60;;;3.50;;
71965;SDS011;59836;52.132;5.442;2023-06-05T01:46:17;5.07;;;3.20;;
71965;SDS011;59836;52.132;5.442;2023-06-05T01:48:47;4.65;;;3.47;;
71965;SDS011;59836;52.132;5.442;2023-06-05T01:51:14;5.85;;;3.65;;
71965;SDS011;59836;52.132;5.442;2023-06-05T01:53:40;7.63;;;3.60;;
71965;SDS011;59836;52.132;5.442;2023-06-05T01:56:07;4.93;;;3.83;;
71965;SDS011;59836;52.132;5.442;2023-06-05T01:58:35;4.28;;;3.38;;
71965;SDS011;59836;52.132;5.442;2023-06-05T02:01:01;4.97;;;3.63;;
71965;SDS011;59836;52.132;5.442;2023-06-05T02:03:29;5.95;;;3.17;;
71965;SDS011;59836;52.132;5.442;2023-06-05T02:05:56;5.43;;;3.58;;
71965;SDS011;59836;52.132;5.442;2023-06-05T02:08:22;7.57;;;3.60;;
71965;SDS011;59836;52.132;5.442;2023-06-05T02:10:49;6.63;;;3.55;;
71965;SDS011;59836;52.132;5.442;2023-06-05T02:13:16;5.50;;;3.63;;
71965;SDS011;59836;52.132;5.442;2023-06-05T02:15:42;5.68;;;3.95;;
71965;SDS011;59836;52.132;5.442;2023-06-05T02:18:11;7.10;;;4.05;;
71965;SDS011;59836;52.132;5.442;2023-06-05T02:20:40;7.80;;;4.00;;
71965;SDS011;59836;52.132;5.442;2023-06-05T02:23:07;6.88;;;3.65;;
71965;SDS011;59836;52.132;5.442;2023-06-05T02:25:34;5.72;;;3.50;;
71965;SDS011;59836;52.132;5.442;2023-06-05T02:28:01;6.93;;;3.85;;
71965;SDS011;59836;52.132;5.442;2023-06-05T02:30:27;5.63;;;4.05;;
71965;SDS011;59836;52.132;5.442;2023-06-05T02:32:54;7.40;;;4.00;;
71965;SDS011;59836;52.132;5.442;2023-06-05T02:35:23;6.50;;;3.75;;
71965;SDS011;59836;52.132;5.442;2023-06-05T02:37:50;5.15;;;4.00;;
71965;SDS011;59836;52.132;5.442;2023-06-05T02:40:17;6.28;;;4.20;;
71965;SDS011;59836;52.132;5.442;2023-06-05T02:42:44;6.30;;;3.50;;
71965;SDS011;59836;52.132;5.442;2023-06-05T02:45:11;6.60;;;3.80;;
71965;SDS011;59836;52.132;5.442;2023-06-05T02:47:37;5.75;;;4.03;;
71965;SDS011;59836;52.132;5.442;2023-06-05T02:50:04;8.05;;;4.10;;
71965;SDS011;59836;52.132;5.442;2023-06-05T02:52:32;7.18;;;3.80;;
71965;SDS011;59836;52.132;5.442;2023-06-05T02:55:01;5.63;;;4.00;;
71965;SDS011;59836;52.132;5.442;2023-06-05T02:57:29;6.73;;;4.13;;
71965;SDS011;59836;52.132;5.442;2023-06-05T02:59:56;7.22;;;3.22;;
71965;SDS011;59836;52.132;5.442;2023-06-05T03:02:22;5.15;;;4.10;;
71965;SDS011;59836;52.132;5.442;2023-06-05T03:04:51;8.30;;;4.20;;
71965;SDS011;59836;52.132;5.442;2023-06-05T03:07:19;9.32;;;4.25;;
71965;SDS011;59836;52.132;5.442;2023-06-05T03:09:49;6.13;;;3.67;;
71965;SDS011;59836;52.132;5.442;2023-06-05T03:12:15;7.50;;;4.28;;
71965;SDS011;59836;52.132;5.442;2023-06-05T03:14:42;6.50;;;4.13;;
71965;SDS011;59836;52.132;5.442;2023-06-05T03:17:08;6.97;;;3.70;;
71965;SDS011;59836;52.132;5.442;2023-06-05T03:19:36;8.82;;;4.72;;
71965;SDS011;59836;52.132;5.442;2023-06-05T03:22:02;7.50;;;4.10;;
71965;SDS011;59836;52.132;5.442;2023-06-05T03:24:30;7.38;;;4.47;;
71965;SDS011;59836;52.132;5.442;2023-06-05T03:26:56;8.68;;;4.25;;
71965;SDS011;59836;52.132;5.442;2023-06-05T03:29:23;6.47;;;4.63;;
71965;SDS011;59836;52.132;5.442;2023-06-05T03:31:49;6.15;;;4.10;;
71965;SDS011;59836;52.132;5.442;2023-06-05T03:34:16;7.03;;;3.90;;
71965;SDS011;59836;52.132;5.442;2023-06-05T03:36:42;8.13;;;4.15;;
71965;SDS011;59836;52.132;5.442;2023-06-05T03:39:09;6.90;;;4.00;;
71965;SDS011;59836;52.132;5.442;2023-06-05T03:41:35;7.35;;;4.30;;
71965;SDS011;59836;52.132;5.442;2023-06-05T03:44:02;6.00;;;4.15;;
71965;SDS011;59836;52.132;5.442;2023-06-05T03:46:30;10.50;;;4.63;;
71965;SDS011;59836;52.132;5.442;2023-06-05T03:48:57;8.02;;;4.72;;
71965;SDS011;59836;52.132;5.442;2023-06-05T03:51:31;7.07;;;4.32;;
71965;SDS011;59836;52.132;5.442;2023-06-05T03:53:58;10.30;;;5.18;;
71965;SDS011;59836;52.132;5.442;2023-06-05T03:56:26;6.45;;;4.40;;
71965;SDS011;59836;52.132;5.442;2023-06-05T03:59:00;9.33;;;4.63;;
71965;SDS011;59836;52.132;5.442;2023-06-05T04:01:35;8.90;;;4.22;;
71965;SDS011;59836;52.132;5.442;2023-06-05T04:04:05;8.40;;;4.68;;
71965;SDS011;59836;52.132;5.442;2023-06-05T04:06:31;7.78;;;4.07;;
71965;SDS011;59836;52.132;5.442;2023-06-05T04:08:58;7.63;;;4.68;;
71965;SDS011;59836;52.132;5.442;2023-06-05T04:11:26;7.23;;;4.30;;
71965;SDS011;59836;52.132;5.442;2023-06-05T04:13:56;7.57;;;4.15;;
71965;SDS011;59836;52.132;5.442;2023-06-05T04:16:23;12.85;;;4.53;;
71965;SDS011;59836;52.132;5.442;2023-06-05T04:18:49;8.10;;;4.80;;
71965;SDS011;59836;52.132;5.442;2023-06-05T04:21:16;7.78;;;4.57;;
71965;SDS011;59836;52.132;5.442;2023-06-05T04:23:42;9.30;;;4.80;;
71965;SDS011;59836;52.132;5.442;2023-06-05T04:26:09;8.68;;;4.60;;
71965;SDS011;59836;52.132;5.442;2023-06-05T04:28:35;9.35;;;4.90;;
71965;SDS011;59836;52.132;5.442;2023-06-05T04:31:02;9.77;;;4.63;;
71965;SDS011;59836;52.132;5.442;2023-06-05T04:33:28;9.60;;;4.50;;
71965;SDS011;59836;52.132;5.442;2023-06-05T04:35:55;9.00;;;4.80;;
71965;SDS011;59836;52.132;5.442;2023-06-05T04:38:24;9.05;;;4.78;;
71965;SDS011;59836;52.132;5.442;2023-06-05T04:40:50;6.80;;;4.53;;
71965;SDS011;59836;52.132;5.442;2023-06-05T04:43:17;9.02;;;4.75;;
71965;SDS011;59836;52.132;5.442;2023-06-05T04:45:44;7.70;;;4.35;;
71965;SDS011;59836;52.132;5.442;2023-06-05T04:48:12;10.10;;;4.90;;
71965;SDS011;59836;52.132;5.442;2023-06-05T04:50:38;7.78;;;4.57;;
71965;SDS011;59836;52.132;5.442;2023-06-05T04:53:05;8.65;;;4.80;;
71965;SDS011;59836;52.132;5.442;2023-06-05T04:55:31;9.48;;;5.03;;
71965;SDS011;59836;52.132;5.442;2023-06-05T04:57:58;8.55;;;4.57;;
71965;SDS011;59836;52.132;5.442;2023-06-05T05:00:27;8.27;;;4.30;;
71965;SDS011;59836;52.132;5.442;2023-06-05T05:02:54;7.30;;;4.80;;
71965;SDS011;59836;52.132;5.442;2023-06-05T05:05:20;9.73;;;4.65;;
71965;SDS011;59836;52.132;5.442;2023-06-05T05:07:47;7.55;;;4.45;;
71965;SDS011;59836;52.132;5.442;2023-06-05T05:10:14;9.27;;;5.03;;
71965;SDS011;59836;52.132;5.442;2023-06-05T05:12:40;9.10;;;4.50;;
71965;SDS011;59836;52.132;5.442;2023-06-05T05:15:07;7.00;;;4.50;;
71965;SDS011;59836;52.132;5.442;2023-06-05T05:17:34;8.70;;;4.30;;
71965;SDS011;59836;52.132;5.442;2023-06-05T05:20:01;7.75;;;4.18;;
71965;SDS011;59836;52.132;5.442;2023-06-05T05:22:29;10.05;;;4.93;;
71965;SDS011;59836;52.132;5.442;2023-06-05T05:24:56;8.50;;;4.63;;
71965;SDS011;59836;52.132;5.442;2023-06-05T05:27:22;8.65;;;4.65;;
71965;SDS011;59836;52.132;5.442;2023-06-05T05:29:50;9.02;;;4.63;;
71965;SDS011;59836;52.132;5.442;2023-06-05T05:32:17;9.75;;;5.00;;
71965;SDS011;59836;52.132;5.442;2023-06-05T05:34:43;9.98;;;5.22;;
71965;SDS011;59836;52.132;5.442;2023-06-05T05:37:10;9.50;;;4.57;;
71965;SDS011;59836;52.132;5.442;2023-06-05T05:39:36;8.68;;;5.35;;
71965;SDS011;59836;52.132;5.442;2023-06-05T05:42:03;10.18;;;4.53;;
71965;SDS011;59836;52.132;5.442;2023-06-05T05:44:30;12.98;;;4.95;;
71965;SDS011;59836;52.132;5.442;2023-06-05T05:46:56;10.20;;;5.50;;
71965;SDS011;59836;52.132;5.442;2023-06-05T05:49:23;10.27;;;5.47;;
71965;SDS011;59836;52.132;5.442;2023-06-05T05:51:50;9.35;;;5.38;;
71965;SDS011;59836;52.132;5.442;2023-06-05T05:54:16;8.77;;;4.63;;
71965;SDS011;59836;52.132;5.442;2023-06-05T05:56:43;9.00;;;4.43;;
71965;SDS011;59836;52.132;5.442;2023-06-05T05:59:10;11.13;;;4.50;;
71965;SDS011;59836;52.132;5.442;2023-06-05T06:01:36;8.30;;;4.80;;
71965;SDS011;59836;52.132;5.442;2023-06-05T06:04:03;8.32;;;4.53;;
71965;SDS011;59836;52.132;5.442;2023-06-05T06:06:29;9.05;;;4.78;;
71965;SDS011;59836;52.132;5.442;2023-06-05T06:08:56;10.80;;;4.65;;
71965;SDS011;59836;52.132;5.442;2023-06-05T06:11:22;7.97;;;4.85;;
71965;SDS011;59836;52.132;5.442;2023-06-05T06:13:49;6.93;;;4.47;;
71965;SDS011;59836;52.132;5.442;2023-06-05T06:16:16;7.88;;;4.30;;
71965;SDS011;59836;52.132;5.442;2023-06-05T06:18:42;10.38;;;5.15;;
71965;SDS011;59836;52.132;5.442;2023-06-05T06:21:10;8.13;;;4.82;;
71965;SDS011;59836;52.132;5.442;2023-06-05T06:23:36;10.18;;;5.07;;
71965;SDS011;59836;52.132;5.442;2023-06-05T06:26:03;8.27;;;4.83;;
71965;SDS011;59836;52.132;5.442;2023-06-05T06:28:32;7.32;;;4.47;;
71965;SDS011;59836;52.132;5.442;2023-06-05T06:30:59;10.73;;;5.32;;
71965;SDS011;59836;52.132;5.442;2023-06-05T06:33:26;8.60;;;5.43;;
71965;SDS011;59836;52.132;5.442;2023-06-05T06:35:52;7.22;;;4.53;;
71965;SDS011;59836;52.132;5.442;2023-06-05T06:38:18;8.90;;;4.70;;
71965;SDS011;59836;52.132;5.442;2023-06-05T06:40:45;10.95;;;5.20;;
71965;SDS011;59836;52.132;5.442;2023-06-05T06:43:12;10.40;;;4.90;;
71965;SDS011;59836;52.132;5.442;2023-06-05T06:45:39;8.88;;;4.63;;
71965;SDS011;59836;52.132;5.442;2023-06-05T06:48:05;8.25;;;4.80;;
71965;SDS011;59836;52.132;5.442;2023-06-05T06:50:34;8.47;;;4.77;;
71965;SDS011;59836;52.132;5.442;2023-06-05T06:53:01;7.82;;;4.47;;
71965;SDS011;59836;52.132;5.442;2023-06-05T06:55:27;8.85;;;5.00;;
71965;SDS011;59836;52.132;5.442;2023-06-05T06:57:54;7.10;;;4.47;;
71965;SDS011;59836;52.132;5.442;2023-06-05T07:00:21;9.45;;;4.68;;
71965;SDS011;59836;52.132;5.442;2023-06-05T07:02:47;7.60;;;4.37;;
71965;SDS011;59836;52.132;5.442;2023-06-05T07:05:15;6.50;;;4.25;;
71965;SDS011;59836;52.132;5.442;2023-06-05T07:07:41;7.90;;;4.70;;
71965;SDS011;59836;52.132;5.442;2023-06-05T07:10:08;9.10;;;4.43;;
71965;SDS011;59836;52.132;5.442;2023-06-05T07:12:35;7.88;;;4.53;;
71965;SDS011;59836;52.132;5.442;2023-06-05T07:15:02;8.47;;;5.07;;
71965;SDS011;59836;52.132;5.442;2023-06-05T07:17:29;10.45;;;5.43;;
71965;SDS011;59836;52.132;5.442;2023-06-05T07:19:56;10.23;;;5.00;;
71965;SDS011;59836;52.132;5.442;2023-06-05T07:22:24;12.90;;;5.05;;
71965;SDS011;59836;52.132;5.442;2023-06-05T07:24:54;7.45;;;4.90;;
71965;SDS011;59836;52.132;5.442;2023-06-05T07:27:21;7.60;;;4.50;;
71965;SDS011;59836;52.132;5.442;2023-06-05T07:29:49;8.20;;;4.50;;
71965;SDS011;59836;52.132;5.442;2023-06-05T07:32:17;7.63;;;4.80;;
71965;SDS011;59836;52.132;5.442;2023-06-05T07:34:44;9.43;;;4.85;;
71965;SDS011;59836;52.132;5.442;2023-06-05T07:37:11;8.82;;;4.72;;
71965;SDS011;59836;52.132;5.442;2023-06-05T07:39:38;7.23;;;4.77;;
71965;SDS011;59836;52.132;5.442;2023-06-05T07:42:04;8.85;;;4.53;;
71965;SDS011;59836;52.132;5.442;2023-06-05T07:44:32;7.93;;;4.75;;
71965;SDS011;59836;52.132;5.442;2023-06-05T07:46:58;7.95;;;5.20;;
71965;SDS011;59836;52.132;5.442;2023-06-05T07:49:24;12.32;;;5.07;;
71965;SDS011;59836;52.132;5.442;2023-06-05T07:51:51;6.83;;;4.47;;
71965;SDS011;59836;52.132;5.442;2023-06-05T07:54:18;8.02;;;4.78;;
71965;SDS011;59836;52.132;5.442;2023-06-05T07:56:46;7.55;;;4.07;;
71965;SDS011;59836;52.132;5.442;2023-06-05T07:59:15;7.53;;;4.95;;
71965;SDS011;59836;52.132;5.442;2023-06-05T08:01:43;7.22;;;4.70;;
71965;SDS011;59836;52.132;5.442;2023-06-05T08:04:09;7.87;;;4.83;;
71965;SDS011;59836;52.132;5.442;2023-06-05T08:06:39;7.72;;;4.22;;
71965;SDS011;59836;52.132;5.442;2023-06-05T08:09:06;9.70;;;5.10;;
71965;SDS011;59836;52.132;5.442;2023-06-05T08:11:36;7.32;;;4.40;;
71965;SDS011;59836;52.132;5.442;2023-06-05T08:14:04;7.75;;;4.75;;
71965;SDS011;59836;52.132;5.442;2023-06-05T08:16:32;6.73;;;4.77;;
71965;SDS011;59836;52.132;5.442;2023-06-05T08:18:59;7.90;;;5.18;;
71965;SDS011;59836;52.132;5.442;2023-06-05T08:21:26;7.93;;;4.47;;
71965;SDS011;59836;52.132;5.442;2023-06-05T08:23:58;7.22;;;5.38;;
71965;SDS011;59836;52.132;5.442;2023-06-05T08:26:24;9.10;;;5.50;;
71965;SDS011;59836;52.132;5.442;2023-06-05T08:28:52;9.90;;;5.43;;
71965;SDS011;59836;52.132;5.442;2023-06-05T08:31:19;7.15;;;4.88;;
71965;SDS011;59836;52.132;5.442;2023-06-05T08:33:45;8.35;;;5.30;;
71965;SDS011;59836;52.132;5.442;2023-06-05T08:36:12;7.00;;;5.05;;
71965;SDS011;59836;52.132;5.442;2023-06-05T08:38:39;8.20;;;4.78;;
71965;SDS011;59836;52.132;5.442;2023-06-05T08:41:08;8.63;;;5.70;;
71965;SDS011;59836;52.132;5.442;2023-06-05T08:43:37;9.13;;;5.18;;
71965;SDS011;59836;52.132;5.442;2023-06-05T08:46:05;8.13;;;5.30;;
71965;SDS011;59836;52.132;5.442;2023-06-05T08:48:37;9.57;;;5.47;;
71965;SDS011;59836;52.132;5.442;2023-06-05T08:51:13;7.93;;;5.35;;
71965;SDS011;59836;52.132;5.442;2023-06-05T08:53:54;8.10;;;5.07;;
71965;SDS011;59836;52.132;5.442;2023-06-05T08:56:23;7.40;;;5.30;;
71965;SDS011;59836;52.132;5.442;2023-06-05T08:58:52;9.38;;;5.15;;
71965;SDS011;59836;52.132;5.442;2023-06-05T09:01:21;8.52;;;5.15;;
71965;SDS011;59836;52.132;5.442;2023-06-05T09:03:51;8.93;;;5.00;;
71965;SDS011;59836;52.132;5.442;2023-06-05T09:06:17;9.93;;;5.03;;
71965;SDS011;59836;52.132;5.442;2023-06-05T09:08:44;8.00;;;5.35;;
71965;SDS011;59836;52.132;5.442;2023-06-05T09:11:23;9.50;;;5.60;;
71965;SDS011;59836;52.132;5.442;2023-06-05T09:13:57;8.30;;;5.50;;
71965;SDS011;59836;52.132;5.442;2023-06-05T09:16:35;7.25;;;4.97;;
71965;SDS011;59836;52.132;5.442;2023-06-05T09:19:04;7.97;;;4.77;;
71965;SDS011;59836;52.132;5.442;2023-06-05T09:21:32;8.15;;;5.13;;
71965;SDS011;59836;52.132;5.442;2023-06-05T09:26:55;7.90;;;5.22;;
71965;SDS011;59836;52.132;5.442;2023-06-05T09:29:41;6.97;;;4.90;;
71965;SDS011;59836;52.132;5.442;2023-06-05T09:32:15;9.07;;;4.83;;
71965;SDS011;59836;52.132;5.442;2023-06-05T09:34:44;7.57;;;4.80;;
71965;SDS011;59836;52.132;5.442;2023-06-05T09:37:12;5.88;;;4.10;;
71965;SDS011;59836;52.132;5.442;2023-06-05T09:39:40;6.78;;;4.70;;
71965;SDS011;59836;52.132;5.442;2023-06-05T09:42:09;8.05;;;4.97;;
71965;SDS011;59836;52.132;5.442;2023-06-05T09:44:37;7.07;;;4.30;;
71965;SDS011;59836;52.132;5.442;2023-06-05T09:47:07;6.80;;;4.82;;
71965;SDS011;59836;52.132;5.442;2023-06-05T09:52:07;5.45;;;4.15;;
71965;SDS011;59836;52.132;5.442;2023-06-05T09:54:44;6.82;;;4.25;;
71965;SDS011;59836;52.132;5.442;2023-06-05T09:57:14;8.43;;;4.43;;
71965;SDS011;59836;52.132;5.442;2023-06-05T09:59:45;5.45;;;3.60;;
71965;SDS011;59836;52.132;5.442;2023-06-05T10:02:14;6.63;;;3.85;;
71965;SDS011;59836;52.132;5.442;2023-06-05T10:04:46;7.53;;;4.55;;
71965;SDS011;59836;52.132;5.442;2023-06-05T10:07:20;9.13;;;4.38;;
71965;SDS011;59836;52.132;5.442;2023-06-05T10:09:49;6.30;;;4.40;;
71965;SDS011;59836;52.132;5.442;2023-06-05T10:12:16;6.80;;;3.65;;
71965;SDS011;59836;52.132;5.442;2023-06-05T10:14:43;7.82;;;3.85;;
71965;SDS011;59836;52.132;5.442;2023-06-05T10:17:13;5.93;;;3.70;;
71965;SDS011;59836;52.132;5.442;2023-06-05T10:19:43;5.65;;;3.88;;
71965;SDS011;59836;52.132;5.442;2023-06-05T10:22:10;7.10;;;4.17;;
71965;SDS011;59836;52.132;5.442;2023-06-05T10:24:39;5.68;;;3.35;;
71965;SDS011;59836;52.132;5.442;2023-06-05T10:27:21;6.55;;;3.53;;
71965;SDS011;59836;52.132;5.442;2023-06-05T10:30:50;5.82;;;3.50;;
71965;SDS011;59836;52.132;5.442;2023-06-05T10:33:25;5.75;;;3.20;;
71965;SDS011;59836;52.132;5.442;2023-06-05T10:36:09;4.57;;;3.40;;
71965;SDS011;59836;52.132;5.442;2023-06-05T10:38:48;5.53;;;3.85;;
71965;SDS011;59836;52.132;5.442;2023-06-05T10:41:14;4.63;;;3.60;;
71965;SDS011;59836;52.132;5.442;2023-06-05T10:43:48;5.80;;;3.58;;
71965;SDS011;59836;52.132;5.442;2023-06-05T10:46:32;5.40;;;3.22;;
71965;SDS011;59836;52.132;5.442;2023-06-05T10:51:44;8.65;;;3.47;;
71965;SDS011;59836;52.132;5.442;2023-06-05T10:54:12;4.07;;;3.10;;
71965;SDS011;59836;52.132;5.442;2023-06-05T10:59:19;6.35;;;3.20;;
71965;SDS011;59836;52.132;5.442;2023-06-05T11:15:10;3.63;;;2.40;;
71965;SDS011;59836;52.132;5.442;2023-06-05T11:17:38;5.20;;;3.05;;
71965;SDS011;59836;52.132;5.442;2023-06-05T11:20:06;4.50;;;2.78;;
71965;SDS011;59836;52.132;5.442;2023-06-05T11:28:08;4.77;;;2.50;;
71965;SDS011;59836;52.132;5.442;2023-06-05T11:30:39;6.35;;;2.67;;
71965;SDS011;59836;52.132;5.442;2023-06-05T11:33:15;4.07;;;2.90;;
71965;SDS011;59836;52.132;5.442;2023-06-05T11:35:45;5.60;;;2.55;;
71965;SDS011;59836;52.132;5.442;2023-06-05T11:38:14;4.68;;;2.80;;
71965;SDS011;59836;52.132;5.442;2023-06-05T11:40:44;4.60;;;3.10;;
71965;SDS011;59836;52.132;5.442;2023-06-05T11:43:14;5.85;;;2.67;;
71965;SDS011;59836;52.132;5.442;2023-06-05T11:45:43;5.25;;;2.70;;
71965;SDS011;59836;52.132;5.442;2023-06-05T11:48:15;5.20;;;2.70;;
71965;SDS011;59836;52.132;5.442;2023-06-05T11:53:45;4.03;;;2.97;;
71965;SDS011;59836;52.132;5.442;2023-06-05T11:56:14;4.00;;;2.60;;
71965;SDS011;59836;52.132;5.442;2023-06-05T11:58:44;4.97;;;2.75;;
71965;SDS011;59836;52.132;5.442;2023-06-05T12:01:14;3.63;;;1.90;;
71965;SDS011;59836;52.132;5.442;2023-06-05T12:03:49;4.20;;;2.80;;
71965;SDS011;59836;52.132;5.442;2023-06-05T12:06:28;4.30;;;2.33;;
71965;SDS011;59836;52.132;5.442;2023-06-05T12:09:08;4.75;;;3.03;;
71965;SDS011;59836;52.132;5.442;2023-06-05T12:11:36;3.65;;;2.60;;
71965;SDS011;59836;52.132;5.442;2023-06-05T12:14:04;4.50;;;2.80;;
71965;SDS011;59836;52.132;5.442;2023-06-05T12:16:31;5.00;;;3.08;;
71965;SDS011;59836;52.132;5.442;2023-06-05T12:19:03;6.03;;;2.80;;
71965;SDS011;59836;52.132;5.442;2023-06-05T12:21:44;10.00;;;3.38;;
71965;SDS011;59836;52.132;5.442;2023-06-05T12:24:13;4.40;;;2.42;;
71965;SDS011;59836;52.132;5.442;2023-06-05T12:26:53;5.45;;;3.00;;
71965;SDS011;59836;52.132;5.442;2023-06-05T12:29:22;4.88;;;3.05;;
71965;SDS011;59836;52.132;5.442;2023-06-05T12:31:51;5.77;;;3.17;;
71965;SDS011;59836;52.132;5.442;2023-06-05T12:34:18;4.85;;;2.90;;
71965;SDS011;59836;52.132;5.442;2023-06-05T12:36:45;4.82;;;2.72;;
71965;SDS011;59836;52.132;5.442;2023-06-05T12:39:13;4.63;;;3.03;;
71965;SDS011;59836;52.132;5.442;2023-06-05T12:41:40;3.78;;;2.53;;
71965;SDS011;59836;52.132;5.442;2023-06-05T12:44:07;4.83;;;2.83;;
71965;SDS011;59836;52.132;5.442;2023-06-05T12:46:37;6.20;;;3.38;;
71965;SDS011;59836;52.132;5.442;2023-06-05T12:49:05;5.25;;;3.33;;
71965;SDS011;59836;52.132;5.442;2023-06-05T12:51:32;6.15;;;3.28;;
71965;SDS011;59836;52.132;5.442;2023-06-05T12:53:58;5.90;;;2.88;;
71965;SDS011;59836;52.132;5.442;2023-06-05T12:56:25;5.33;;;2.53;;
71965;SDS011;59836;52.132;5.442;2023-06-05T12:58:53;4.28;;;3.08;;
71965;SDS011;59836;52.132;5.442;2023-06-05T13:01:23;4.03;;;2.50;;
71965;SDS011;59836;52.132;5.442;2023-06-05T13:03:51;4.90;;;2.42;;
71965;SDS011;59836;52.132;5.442;2023-06-05T13:06:18;4.15;;;2.50;;
71965;SDS011;59836;52.132;5.442;2023-06-05T13:08:45;5.63;;;2.90;;
71965;SDS011;59836;52.132;5.442;2023-06-05T13:11:13;5.78;;;3.30;;
71965;SDS011;59836;52.132;5.442;2023-06-05T13:13:40;4.18;;;2.78;;
71965;SDS011;59836;52.132;5.442;2023-06-05T13:16:07;5.78;;;3.17;;
71965;SDS011;59836;52.132;5.442;2023-06-05T13:18:37;3.80;;;2.60;;
71965;SDS011;59836;52.132;5.442;2023-06-05T13:21:04;5.10;;;3.00;;
71965;SDS011;59836;52.132;5.442;2023-06-05T13:23:31;6.13;;;3.10;;
71965;SDS011;59836;52.132;5.442;2023-06-05T13:26:01;6.55;;;3.72;;
71965;SDS011;59836;52.132;5.442;2023-06-05T13:28:29;4.13;;;3.10;;
71965;SDS011;59836;52.132;5.442;2023-06-05T13:30:56;4.40;;;3.10;;
71965;SDS011;59836;52.132;5.442;2023-06-05T13:33:22;5.13;;;2.67;;
71965;SDS011;59836;52.132;5.442;2023-06-05T13:35:51;4.95;;;3.00;;
71965;SDS011;59836;52.132;5.442;2023-06-05T13:38:19;4.07;;;2.70;;
71965;SDS011;59836;52.132;5.442;2023-06-05T13:40:46;5.75;;;3.20;;
71965;SDS011;59836;52.132;5.442;2023-06-05T13:43:21;5.45;;;3.20;;
71965;SDS011;59836;52.132;5.442;2023-06-05T13:45:47;5.87;;;3.20;;
71965;SDS011;59836;52.132;5.442;2023-06-05T13:48:14;8.80;;;3.65;;
71965;SDS011;59836;52.132;5.442;2023-06-05T13:50:43;4.70;;;3.00;;
71965;SDS011;59836;52.132;5.442;2023-06-05T13:53:10;5.75;;;3.00;;
71965;SDS011;59836;52.132;5.442;2023-06-05T13:55:40;6.00;;;4.03;;
71965;SDS011;59836;52.132;5.442;2023-06-05T13:58:07;5.83;;;3.43;;
71965;SDS011;59836;52.132;5.442;2023-06-05T14:00:42;5.43;;;3.15;;
71965;SDS011;59836;52.132;5.442;2023-06-05T14:03:10;6.47;;;3.17;;
71965;SDS011;59836;52.132;5.442;2023-06-05T14:05:39;6.88;;;3.72;;
71965;SDS011;59836;52.132;5.442;2023-06-05T14:08:06;4.45;;;3.33;;
71965;SDS011;59836;52.132;5.442;2023-06-05T14:10:33;4.50;;;2.70;;
71965;SDS011;59836;52.132;5.442;2023-06-05T14:13:02;5.63;;;3.38;;
71965;SDS011;59836;52.132;5.442;2023-06-05T14:15:30;6.45;;;3.30;;
71965;SDS011;59836;52.132;5.442;2023-06-05T14:17:57;5.63;;;3.95;;
71965;SDS011;59836;52.132;5.442;2023-06-05T14:20:26;6.35;;;3.42;;
71965;SDS011;59836;52.132;5.442;2023-06-05T14:22:53;6.33;;;3.80;;
71965;SDS011;59836;52.132;5.442;2023-06-05T14:25:19;8.77;;;4.18;;
71965;SDS011;59836;52.132;5.442;2023-06-05T14:27:47;5.57;;;3.35;;
71965;SDS011;59836;52.132;5.442;2023-06-05T14:30:13;5.22;;;3.25;;
71965;SDS011;59836;52.132;5.442;2023-06-05T14:32:40;7.22;;;3.97;;
71965;SDS011;59836;52.132;5.442;2023-06-05T14:35:08;5.93;;;3.37;;
71965;SDS011;59836;52.132;5.442;2023-06-05T14:37:35;7.18;;;3.92;;
71965;SDS011;59836;52.132;5.442;2023-06-05T14:40:01;7.13;;;3.70;;
71965;SDS011;59836;52.132;5.442;2023-06-05T14:42:28;5.05;;;3.63;;
71965;SDS011;59836;52.132;5.442;2023-06-05T14:44:55;11.10;;;3.97;;
71965;SDS011;59836;52.132;5.442;2023-06-05T14:47:21;5.60;;;3.50;;
71965;SDS011;59836;52.132;5.442;2023-06-05T14:49:49;5.35;;;3.40;;
71965;SDS011;59836;52.132;5.442;2023-06-05T14:52:15;15.73;;;3.83;;
71965;SDS011;59836;52.132;5.442;2023-06-05T14:54:44;5.45;;;3.65;;
71965;SDS011;59836;52.132;5.442;2023-06-05T14:57:29;6.50;;;3.38;;
71965;SDS011;59836;52.132;5.442;2023-06-05T14:59:59;7.77;;;3.80;;
71965;SDS011;59836;52.132;5.442;2023-06-05T15:02:26;6.18;;;3.25;;
71965;SDS011;59836;52.132;5.442;2023-06-05T15:04:52;5.30;;;3.58;;
71965;SDS011;59836;52.132;5.442;2023-06-05T15:07:19;7.07;;;3.70;;
71965;SDS011;59836;52.132;5.442;2023-06-05T15:09:47;6.05;;;3.72;;
71965;SDS011;59836;52.132;5.442;2023-06-05T15:12:14;5.23;;;3.33;;
71965;SDS011;59836;52.132;5.442;2023-06-05T15:14:41;5.13;;;3.45;;
71965;SDS011;59836;52.132;5.442;2023-06-05T15:17:08;6.43;;;3.80;;
71965;SDS011;59836;52.132;5.442;2023-06-05T15:19:35;7.85;;;4.13;;
71965;SDS011;59836;52.132;5.442;2023-06-05T15:22:04;6.25;;;3.47;;
71965;SDS011;59836;52.132;5.442;2023-06-05T15:24:32;5.60;;;3.20;;
71965;SDS011;59836;52.132;5.442;2023-06-05T15:26:59;6.60;;;3.70;;
71965;SDS011;59836;52.132;5.442;2023-06-05T15:29:26;6.03;;;3.67;;
71965;SDS011;59836;52.132;5.442;2023-06-05T15:31:53;5.97;;;3.95;;